• Join FlightAware (Why Join?)
  • Login
  • US Flag 
10:16AM EDT


 

Airport Tracker/Info


-or-


 

Live Flight TrackerFlight Track Log ✈ CFS791 ✈ 07-May-2013 ✈ KABQ - KFMN

Flight Track Log - Related Links

Times and Time Zones

All times are in EDT time to prevent confusion due to time zone crossing. See the CFS791 flight status page for this flight to view local times or setup timezone preferences in your user account.

Time Position Orientation Groundspeed Altitude Reporting Facility
EDT Latitude Longitude Course Direction KTS MPH feet Rate Location/Type
08:55AM 35.0431 -106.6131 11° North 105 121 5,700  Level Albuquerque Center
08:56AM 35.0511 -106.6111 11° North 111 128 6,000 600 Climbing Albuquerque Center
08:57AM 35.0742 -106.6194 344° North 108 124 6,500 600 Climbing Albuquerque Center
08:58AM 35.1033 -106.6575 313° West 123 142 7,300 660 Climbing Albuquerque Center
08:59AM 35.1283 -106.6878 315° West 126 145 7,900 540 Climbing Albuquerque Center
09:00AM 35.1561 -106.7192 317° Northwest 132 152 8,400 480 Climbing Albuquerque Center
09:01AM 35.1856 -106.7481 321° Northwest 135 155 8,900 480 Climbing Albuquerque Center
09:02AM 35.2161 -106.7775 322° Northwest 138 159 9,400 480 Climbing Albuquerque Center
09:03AM 35.2461 -106.8072 321° Northwest 139 160 9,900 480 Climbing Albuquerque Center
09:04AM 35.2764 -106.8372 321° Northwest 140 161 10,400 540 Climbing Albuquerque Center
09:05AM 35.3069 -106.8664 322° Northwest 140 161 11,000 480 Climbing Albuquerque Center
09:06AM 35.3375 -106.8944 323° Northwest 138 159 11,400 420 Climbing Albuquerque Center
09:07AM 35.3700 -106.9217 326° Northwest 139 160 11,900 240 Climbing Albuquerque Center
09:08AM 35.4131 -106.9358 345° North 155 178 11,900  Level Albuquerque Center
09:09AM 35.4594 -106.9506 346° North 168 193 11,900  Level Albuquerque Center
09:10AM 35.5047 -106.9644 346° North 169 194 11,900  Level Albuquerque Center
09:11AM 35.5458 -106.9861 337° Northwest 164 189 11,900  Level Albuquerque Center
09:12AM 35.5778 -107.0208 319° Northwest 154 177 11,900  Level Albuquerque Center
09:13AM 35.6114 -107.0531 322° Northwest 153 176 11,900  Level Albuquerque Center
09:14AM 35.6519 -107.0883 325° Northwest 151 174 11,900  Level Albuquerque Center
09:15AM 35.6844 -107.1203 321° Northwest 149 171 11,900  Level Albuquerque Center
09:16AM 35.7181 -107.1494 325° Northwest 148 170 11,900  Level Albuquerque Center
09:17AM 35.7553 -107.1831 324° Northwest 153 176 11,900  Level Albuquerque Center
09:18AM 35.7886 -107.2128 324° Northwest 155 178 11,900  Level Albuquerque Center
09:19AM 35.8194 -107.2428 322° Northwest 150 173 11,900  Level Albuquerque Center
09:20AM 35.8586 -107.2772 325° Northwest 152 175 11,900  Level Albuquerque Center
09:21AM 35.8917 -107.3072 324° Northwest 154 177 11,900  Level Albuquerque Center
09:22AM 35.9244 -107.3372 323° Northwest 153 176 11,900  Level Albuquerque Center
09:23AM 35.9622 -107.3733 322° Northwest 153 176 11,900  Level Albuquerque Center
09:24AM 35.9953 -107.4031 324° Northwest 153 176 11,900  Level Albuquerque Center
09:25AM 36.0300 -107.4342 324° Northwest 158 182 11,900  Level Albuquerque Center
09:26AM 36.0681 -107.4683 324° Northwest 154 177 11,900  Level Albuquerque Center
09:27AM 36.1003 -107.4992 322° Northwest 153 176 11,900  Level Albuquerque Center
09:28AM 36.1353 -107.5294 325° Northwest 157 181 11,900  Level Albuquerque Center
09:29AM 36.1753 -107.5653 324° Northwest 158 182 11,900  Level Albuquerque Center
09:30AM 36.2097 -107.5961 324° Northwest 159 183 11,900  Level Albuquerque Center
09:31AM 36.2433 -107.6278 323° Northwest 159 183 11,900 -300 Level Albuquerque Center
09:32AM 36.2844 -107.6656 323° Northwest 164 189 11,300 -600 Descending Albuquerque Center
09:33AM 36.3278 -107.6978 329° Northwest 180 207 10,800 -600 Descending Albuquerque Center
09:34AM 36.3689 -107.7406 320° Northwest 175 201 10,200 -480 Descending Albuquerque Center
09:35AM 36.3992 -107.7692 323° Northwest 174 200 10,000 -120 Descending Denver Center
09:36AM 36.4325 -107.8028 321° Northwest 169 194 10,000  Level Denver Center
09:37AM 36.4700 -107.8383 323° Northwest 158 182 10,000  Level Denver Center
09:38AM 36.5097 -107.8750 323° Northwest 157 181 10,000  Level Denver Center
09:39AM 36.5439 -107.9072 323° Northwest 159 183 10,000  Level Denver Center
09:40AM 36.5844 -107.9442 324° Northwest 160 184 10,000  Level Denver Center
09:41AM 36.6189 -107.9775 322° Northwest 162 186 10,000 -120 Level Denver Center
09:42AM 36.6522 -108.0108 321° Northwest 162 186 9,800 -600 Descending Denver Center
09:43AM 36.6742 -108.0728 294° West 172 198 8,900 -840 Descending Denver Center
09:44AM 36.6972 -108.1264 298° West 178 205 8,200 -840 Descending Denver Center
09:45AM 36.7186 -108.1797 297° West 180 207 7,300 -840 Descending Denver Center
09:46AM 36.7247 -108.2483 276° West 181 208 6,600 -840 Descending Denver Center
09:47AM 36.7417 -108.2506 354° North 142 163 5,700 -900 Descending Denver Center